sensor_id;sensor_type;location;lat;lon;timestamp;P1;durP1;ratioP1;P2;durP2;ratioP2
64543;SDS011;50936;51.660;5.616;2023-11-21T00:00:05;5.90;;;3.20;;
64543;SDS011;50936;51.660;5.616;2023-11-21T00:02:58;4.95;;;3.08;;
64543;SDS011;50936;51.660;5.616;2023-11-21T00:05:46;6.68;;;3.70;;
64543;SDS011;50936;51.660;5.616;2023-11-21T00:08:33;7.03;;;3.50;;
64543;SDS011;50936;51.660;5.616;2023-11-21T00:11:20;5.45;;;2.95;;
64543;SDS011;50936;51.660;5.616;2023-11-21T00:14:07;5.97;;;3.22;;
64543;SDS011;50936;51.660;5.616;2023-11-21T00:16:55;6.30;;;3.50;;
64543;SDS011;50936;51.660;5.616;2023-11-21T00:19:42;5.10;;;3.05;;
64543;SDS011;50936;51.660;5.616;2023-11-21T00:22:29;5.82;;;3.25;;
64543;SDS011;50936;51.660;5.616;2023-11-21T00:25:17;5.97;;;3.45;;
64543;SDS011;50936;51.660;5.616;2023-11-21T00:28:04;6.18;;;3.53;;
64543;SDS011;50936;51.660;5.616;2023-11-21T00:30:52;5.13;;;3.00;;
64543;SDS011;50936;51.660;5.616;2023-11-21T00:33:40;5.88;;;3.40;;
64543;SDS011;50936;51.660;5.616;2023-11-21T00:36:27;6.03;;;3.40;;
64543;SDS011;50936;51.660;5.616;2023-11-21T00:39:14;5.05;;;3.20;;
64543;SDS011;50936;51.660;5.616;2023-11-21T00:42:02;5.65;;;3.00;;
64543;SDS011;50936;51.660;5.616;2023-11-21T00:44:51;5.30;;;3.20;;
64543;SDS011;50936;51.660;5.616;2023-11-21T00:47:38;6.50;;;3.30;;
64543;SDS011;50936;51.660;5.616;2023-11-21T00:50:26;5.03;;;3.30;;
64543;SDS011;50936;51.660;5.616;2023-11-21T00:53:16;4.10;;;2.88;;
64543;SDS011;50936;51.660;5.616;2023-11-21T00:56:04;5.72;;;3.05;;
64543;SDS011;50936;51.660;5.616;2023-11-21T00:58:51;4.80;;;3.00;;
64543;SDS011;50936;51.660;5.616;2023-11-21T01:01:39;5.28;;;2.78;;
64543;SDS011;50936;51.660;5.616;2023-11-21T01:04:27;6.13;;;3.20;;
64543;SDS011;50936;51.660;5.616;2023-11-21T01:07:14;4.20;;;2.80;;
64543;SDS011;50936;51.660;5.616;2023-11-21T01:10:02;5.80;;;2.95;;
64543;SDS011;50936;51.660;5.616;2023-11-21T01:12:54;5.32;;;3.20;;
64543;SDS011;50936;51.660;5.616;2023-11-21T01:15:41;4.43;;;2.97;;
64543;SDS011;50936;51.660;5.616;2023-11-21T01:18:28;4.13;;;2.65;;
64543;SDS011;50936;51.660;5.616;2023-11-21T01:21:15;4.55;;;2.97;;
64543;SDS011;50936;51.660;5.616;2023-11-21T01:24:03;4.30;;;2.80;;
64543;SDS011;50936;51.660;5.616;2023-11-21T01:26:54;4.75;;;2.90;;
64543;SDS011;50936;51.660;5.616;2023-11-21T01:29:41;5.95;;;3.05;;
64543;SDS011;50936;51.660;5.616;2023-11-21T01:32:28;4.68;;;2.63;;
64543;SDS011;50936;51.660;5.616;2023-11-21T01:35:15;5.40;;;3.38;;
64543;SDS011;50936;51.660;5.616;2023-11-21T01:38:03;4.53;;;2.90;;
64543;SDS011;50936;51.660;5.616;2023-11-21T01:40:50;4.85;;;2.78;;
64543;SDS011;50936;51.660;5.616;2023-11-21T01:43:38;4.70;;;2.92;;
64543;SDS011;50936;51.660;5.616;2023-11-21T01:46:25;5.68;;;3.15;;
64543;SDS011;50936;51.660;5.616;2023-11-21T01:49:13;4.40;;;2.70;;
64543;SDS011;50936;51.660;5.616;2023-11-21T01:52:01;4.15;;;2.55;;
64543;SDS011;50936;51.660;5.616;2023-11-21T01:54:51;4.30;;;2.80;;
64543;SDS011;50936;51.660;5.616;2023-11-21T01:57:39;6.30;;;3.08;;
64543;SDS011;50936;51.660;5.616;2023-11-21T02:00:28;5.72;;;2.80;;
64543;SDS011;50936;51.660;5.616;2023-11-21T02:03:16;4.30;;;2.60;;
64543;SDS011;50936;51.660;5.616;2023-11-21T02:06:04;5.32;;;2.65;;
64543;SDS011;50936;51.660;5.616;2023-11-21T02:08:52;6.18;;;2.75;;
64543;SDS011;50936;51.660;5.616;2023-11-21T02:11:39;3.83;;;2.50;;
64543;SDS011;50936;51.660;5.616;2023-11-21T02:14:27;6.30;;;3.03;;
64543;SDS011;50936;51.660;5.616;2023-11-21T02:17:16;5.70;;;3.17;;
64543;SDS011;50936;51.660;5.616;2023-11-21T02:20:04;5.68;;;3.10;;
64543;SDS011;50936;51.660;5.616;2023-11-21T02:22:54;5.57;;;2.50;;
64543;SDS011;50936;51.660;5.616;2023-11-21T02:25:47;5.07;;;2.80;;
64543;SDS011;50936;51.660;5.616;2023-11-21T02:28:35;5.55;;;2.90;;
64543;SDS011;50936;51.660;5.616;2023-11-21T02:31:25;4.38;;;2.70;;
64543;SDS011;50936;51.660;5.616;2023-11-21T02:34:14;4.85;;;3.05;;
64543;SDS011;50936;51.660;5.616;2023-11-21T02:37:02;5.05;;;3.03;;
64543;SDS011;50936;51.660;5.616;2023-11-21T02:39:51;4.80;;;2.80;;
64543;SDS011;50936;51.660;5.616;2023-11-21T02:42:39;4.65;;;2.70;;
64543;SDS011;50936;51.660;5.616;2023-11-21T02:45:27;5.60;;;3.00;;
64543;SDS011;50936;51.660;5.616;2023-11-21T02:48:14;4.75;;;2.63;;
64543;SDS011;50936;51.660;5.616;2023-11-21T02:51:01;4.90;;;2.88;;
64543;SDS011;50936;51.660;5.616;2023-11-21T02:53:49;4.40;;;2.78;;
64543;SDS011;50936;51.660;5.616;2023-11-21T02:56:37;4.85;;;2.72;;
64543;SDS011;50936;51.660;5.616;2023-11-21T02:59:26;3.85;;;2.35;;
64543;SDS011;50936;51.660;5.616;2023-11-21T03:02:13;4.45;;;2.60;;
64543;SDS011;50936;51.660;5.616;2023-11-21T03:05:02;4.43;;;2.40;;
64543;SDS011;50936;51.660;5.616;2023-11-21T03:07:51;4.05;;;2.65;;
64543;SDS011;50936;51.660;5.616;2023-11-21T03:10:38;4.93;;;2.80;;
64543;SDS011;50936;51.660;5.616;2023-11-21T03:13:26;4.05;;;2.58;;
64543;SDS011;50936;51.660;5.616;2023-11-21T03:16:15;4.88;;;2.50;;
64543;SDS011;50936;51.660;5.616;2023-11-21T03:19:04;5.78;;;2.60;;
64543;SDS011;50936;51.660;5.616;2023-11-21T03:21:51;3.70;;;2.40;;
64543;SDS011;50936;51.660;5.616;2023-11-21T03:24:40;4.28;;;2.70;;
64543;SDS011;50936;51.660;5.616;2023-11-21T03:27:30;4.28;;;2.60;;
64543;SDS011;50936;51.660;5.616;2023-11-21T03:30:17;4.72;;;3.00;;
64543;SDS011;50936;51.660;5.616;2023-11-21T03:33:04;3.65;;;2.50;;
64543;SDS011;50936;51.660;5.616;2023-11-21T03:35:51;4.75;;;2.70;;
64543;SDS011;50936;51.660;5.616;2023-11-21T03:38:40;5.72;;;2.47;;
64543;SDS011;50936;51.660;5.616;2023-11-21T03:41:28;6.18;;;2.80;;
64543;SDS011;50936;51.660;5.616;2023-11-21T03:44:15;5.43;;;2.80;;
64543;SDS011;50936;51.660;5.616;2023-11-21T03:47:02;4.13;;;2.83;;
64543;SDS011;50936;51.660;5.616;2023-11-21T03:49:50;4.20;;;2.45;;
64543;SDS011;50936;51.660;5.616;2023-11-21T03:52:37;4.72;;;2.38;;
64543;SDS011;50936;51.660;5.616;2023-11-21T03:55:25;4.30;;;2.50;;
64543;SDS011;50936;51.660;5.616;2023-11-21T03:58:12;4.85;;;2.50;;
64543;SDS011;50936;51.660;5.616;2023-11-21T04:01:00;3.78;;;2.17;;
64543;SDS011;50936;51.660;5.616;2023-11-21T04:03:48;3.70;;;2.17;;
64543;SDS011;50936;51.660;5.616;2023-11-21T04:06:37;5.15;;;2.30;;
64543;SDS011;50936;51.660;5.616;2023-11-21T04:09:24;3.83;;;2.22;;
64543;SDS011;50936;51.660;5.616;2023-11-21T04:12:12;4.32;;;2.55;;
64543;SDS011;50936;51.660;5.616;2023-11-21T04:14:59;3.78;;;2.38;;
64543;SDS011;50936;51.660;5.616;2023-11-21T04:17:46;4.35;;;2.40;;
64543;SDS011;50936;51.660;5.616;2023-11-21T04:20:33;3.92;;;2.67;;
64543;SDS011;50936;51.660;5.616;2023-11-21T04:23:20;4.25;;;2.08;;
64543;SDS011;50936;51.660;5.616;2023-11-21T04:26:07;3.55;;;2.38;;
64543;SDS011;50936;51.660;5.616;2023-11-21T04:28:54;4.18;;;2.45;;
64543;SDS011;50936;51.660;5.616;2023-11-21T04:31:42;3.80;;;2.30;;
64543;SDS011;50936;51.660;5.616;2023-11-21T04:34:29;4.40;;;2.65;;
64543;SDS011;50936;51.660;5.616;2023-11-21T04:37:17;3.78;;;2.17;;
64543;SDS011;50936;51.660;5.616;2023-11-21T04:40:05;3.95;;;2.20;;
64543;SDS011;50936;51.660;5.616;2023-11-21T04:42:53;3.28;;;2.22;;
64543;SDS011;50936;51.660;5.616;2023-11-21T04:45:41;3.97;;;2.50;;
64543;SDS011;50936;51.660;5.616;2023-11-21T04:48:28;3.80;;;2.35;;
64543;SDS011;50936;51.660;5.616;2023-11-21T04:51:15;3.80;;;2.28;;
64543;SDS011;50936;51.660;5.616;2023-11-21T04:54:03;4.03;;;2.22;;
64543;SDS011;50936;51.660;5.616;2023-11-21T04:56:52;3.72;;;2.45;;
64543;SDS011;50936;51.660;5.616;2023-11-21T04:59:39;4.05;;;2.42;;
64543;SDS011;50936;51.660;5.616;2023-11-21T05:02:26;4.40;;;2.40;;
64543;SDS011;50936;51.660;5.616;2023-11-21T05:05:21;4.30;;;2.42;;
64543;SDS011;50936;51.660;5.616;2023-11-21T05:08:09;3.42;;;2.20;;
64543;SDS011;50936;51.660;5.616;2023-11-21T05:10:56;2.78;;;1.85;;
64543;SDS011;50936;51.660;5.616;2023-11-21T05:13:43;4.15;;;2.30;;
64543;SDS011;50936;51.660;5.616;2023-11-21T05:16:31;4.65;;;2.50;;
64543;SDS011;50936;51.660;5.616;2023-11-21T05:19:18;3.40;;;1.85;;
64543;SDS011;50936;51.660;5.616;2023-11-21T05:22:05;3.92;;;2.40;;
64543;SDS011;50936;51.660;5.616;2023-11-21T05:24:53;4.30;;;2.50;;
64543;SDS011;50936;51.660;5.616;2023-11-21T05:27:40;4.35;;;2.33;;
64543;SDS011;50936;51.660;5.616;2023-11-21T05:30:27;3.03;;;1.95;;
64543;SDS011;50936;51.660;5.616;2023-11-21T05:33:14;4.10;;;2.30;;
64543;SDS011;50936;51.660;5.616;2023-11-21T05:36:02;3.30;;;2.10;;
64543;SDS011;50936;51.660;5.616;2023-11-21T05:38:49;3.20;;;2.17;;
64543;SDS011;50936;51.660;5.616;2023-11-21T05:41:36;4.53;;;2.15;;
64543;SDS011;50936;51.660;5.616;2023-11-21T05:44:24;3.13;;;2.05;;
64543;SDS011;50936;51.660;5.616;2023-11-21T05:47:11;3.42;;;2.33;;
64543;SDS011;50936;51.660;5.616;2023-11-21T05:50:00;3.15;;;2.10;;
64543;SDS011;50936;51.660;5.616;2023-11-21T05:52:47;4.07;;;2.10;;
64543;SDS011;50936;51.660;5.616;2023-11-21T05:55:35;3.80;;;2.13;;
64543;SDS011;50936;51.660;5.616;2023-11-21T05:58:22;3.85;;;2.22;;
64543;SDS011;50936;51.660;5.616;2023-11-21T06:01:10;5.07;;;2.50;;
64543;SDS011;50936;51.660;5.616;2023-11-21T06:03:59;3.95;;;2.20;;
64543;SDS011;50936;51.660;5.616;2023-11-21T06:06:48;2.33;;;1.52;;
64543;SDS011;50936;51.660;5.616;2023-11-21T06:09:35;3.65;;;2.20;;
64543;SDS011;50936;51.660;5.616;2023-11-21T06:12:24;3.05;;;2.05;;
64543;SDS011;50936;51.660;5.616;2023-11-21T06:15:11;3.53;;;2.22;;
64543;SDS011;50936;51.660;5.616;2023-11-21T06:18:02;3.83;;;2.20;;
64543;SDS011;50936;51.660;5.616;2023-11-21T06:20:50;3.30;;;2.10;;
64543;SDS011;50936;51.660;5.616;2023-11-21T06:23:40;3.85;;;1.80;;
64543;SDS011;50936;51.660;5.616;2023-11-21T06:26:27;3.95;;;2.15;;
64543;SDS011;50936;51.660;5.616;2023-11-21T06:29:15;3.60;;;2.30;;
64543;SDS011;50936;51.660;5.616;2023-11-21T06:32:02;3.53;;;2.08;;
64543;SDS011;50936;51.660;5.616;2023-11-21T06:34:51;4.07;;;2.10;;
64543;SDS011;50936;51.660;5.616;2023-11-21T06:37:41;3.55;;;2.05;;
64543;SDS011;50936;51.660;5.616;2023-11-21T06:40:29;3.95;;;2.20;;
64543;SDS011;50936;51.660;5.616;2023-11-21T06:43:16;3.53;;;2.17;;
64543;SDS011;50936;51.660;5.616;2023-11-21T06:46:04;3.13;;;2.05;;
64543;SDS011;50936;51.660;5.616;2023-11-21T06:48:52;2.97;;;2.00;;
64543;SDS011;50936;51.660;5.616;2023-11-21T06:51:39;2.72;;;1.85;;
64543;SDS011;50936;51.660;5.616;2023-11-21T06:54:26;3.72;;;2.30;;
64543;SDS011;50936;51.660;5.616;2023-11-21T06:57:13;3.92;;;2.08;;
64543;SDS011;50936;51.660;5.616;2023-11-21T07:00:00;3.13;;;1.98;;
64543;SDS011;50936;51.660;5.616;2023-11-21T07:02:49;3.00;;;1.95;;
64543;SDS011;50936;51.660;5.616;2023-11-21T07:05:38;5.85;;;2.05;;
64543;SDS011;50936;51.660;5.616;2023-11-21T07:08:25;3.35;;;1.80;;
64543;SDS011;50936;51.660;5.616;2023-11-21T07:11:13;2.92;;;1.77;;
64543;SDS011;50936;51.660;5.616;2023-11-21T07:14:00;3.88;;;2.22;;
64543;SDS011;50936;51.660;5.616;2023-11-21T07:16:53;2.75;;;1.80;;
64543;SDS011;50936;51.660;5.616;2023-11-21T07:19:41;2.97;;;1.95;;
64543;SDS011;50936;51.660;5.616;2023-11-21T07:22:28;3.75;;;2.08;;
64543;SDS011;50936;51.660;5.616;2023-11-21T07:25:16;3.20;;;1.85;;
64543;SDS011;50936;51.660;5.616;2023-11-21T07:28:03;3.45;;;1.98;;
64543;SDS011;50936;51.660;5.616;2023-11-21T07:30:52;2.90;;;1.90;;
64543;SDS011;50936;51.660;5.616;2023-11-21T07:33:39;3.42;;;1.95;;
64543;SDS011;50936;51.660;5.616;2023-11-21T07:36:27;3.72;;;2.13;;
64543;SDS011;50936;51.660;5.616;2023-11-21T07:39:14;3.60;;;2.03;;
64543;SDS011;50936;51.660;5.616;2023-11-21T07:42:03;7.50;;;1.92;;
64543;SDS011;50936;51.660;5.616;2023-11-21T07:44:51;3.97;;;2.20;;
64543;SDS011;50936;51.660;5.616;2023-11-21T07:47:38;5.13;;;2.20;;
64543;SDS011;50936;51.660;5.616;2023-11-21T07:50:26;3.67;;;2.33;;
64543;SDS011;50936;51.660;5.616;2023-11-21T07:53:14;4.35;;;2.28;;
64543;SDS011;50936;51.660;5.616;2023-11-21T07:56:08;3.35;;;1.75;;
64543;SDS011;50936;51.660;5.616;2023-11-21T07:58:56;3.47;;;1.92;;
64543;SDS011;50936;51.660;5.616;2023-11-21T08:01:43;6.07;;;2.13;;
64543;SDS011;50936;51.660;5.616;2023-11-21T08:04:32;4.07;;;2.03;;
64543;SDS011;50936;51.660;5.616;2023-11-21T08:07:20;5.63;;;2.00;;
64543;SDS011;50936;51.660;5.616;2023-11-21T08:10:08;7.35;;;2.30;;
64543;SDS011;50936;51.660;5.616;2023-11-21T08:12:57;5.85;;;2.10;;
64543;SDS011;50936;51.660;5.616;2023-11-21T08:15:45;4.53;;;2.20;;
64543;SDS011;50936;51.660;5.616;2023-11-21T08:18:33;3.35;;;1.60;;
64543;SDS011;50936;51.660;5.616;2023-11-21T08:21:20;4.97;;;1.88;;
64543;SDS011;50936;51.660;5.616;2023-11-21T08:24:10;4.28;;;1.85;;
64543;SDS011;50936;51.660;5.616;2023-11-21T08:26:58;4.03;;;1.92;;
64543;SDS011;50936;51.660;5.616;2023-11-21T08:29:45;4.28;;;2.00;;
64543;SDS011;50936;51.660;5.616;2023-11-21T08:32:32;7.97;;;2.00;;
64543;SDS011;50936;51.660;5.616;2023-11-21T08:35:20;6.13;;;1.90;;
64543;SDS011;50936;51.660;5.616;2023-11-21T08:38:07;4.22;;;2.00;;
64543;SDS011;50936;51.660;5.616;2023-11-21T08:40:56;5.43;;;2.30;;
64543;SDS011;50936;51.660;5.616;2023-11-21T08:43:43;3.55;;;2.00;;
64543;SDS011;50936;51.660;5.616;2023-11-21T08:46:31;4.72;;;1.92;;
64543;SDS011;50936;51.660;5.616;2023-11-21T08:49:20;3.38;;;2.00;;
64543;SDS011;50936;51.660;5.616;2023-11-21T08:52:07;3.10;;;2.00;;
64543;SDS011;50936;51.660;5.616;2023-11-21T08:54:55;6.10;;;1.95;;
64543;SDS011;50936;51.660;5.616;2023-11-21T08:57:49;6.50;;;2.00;;
64543;SDS011;50936;51.660;5.616;2023-11-21T09:00:39;4.00;;;1.88;;
64543;SDS011;50936;51.660;5.616;2023-11-21T09:03:27;4.03;;;2.40;;
64543;SDS011;50936;51.660;5.616;2023-11-21T09:06:15;4.50;;;2.00;;
64543;SDS011;50936;51.660;5.616;2023-11-21T09:09:02;3.78;;;2.20;;
64543;SDS011;50936;51.660;5.616;2023-11-21T09:11:52;5.28;;;2.30;;
64543;SDS011;50936;51.660;5.616;2023-11-21T09:14:39;4.53;;;2.10;;
64543;SDS011;50936;51.660;5.616;2023-11-21T09:17:27;5.45;;;2.17;;
64543;SDS011;50936;51.660;5.616;2023-11-21T09:20:14;3.70;;;2.15;;
64543;SDS011;50936;51.660;5.616;2023-11-21T09:23:02;5.75;;;2.15;;
64543;SDS011;50936;51.660;5.616;2023-11-21T09:25:49;3.60;;;2.20;;
64543;SDS011;50936;51.660;5.616;2023-11-21T09:28:38;4.47;;;2.40;;
64543;SDS011;50936;51.660;5.616;2023-11-21T09:31:26;4.95;;;2.28;;
64543;SDS011;50936;51.660;5.616;2023-11-21T09:34:14;3.67;;;2.22;;
64543;SDS011;50936;51.660;5.616;2023-11-21T09:37:04;5.28;;;2.10;;
64543;SDS011;50936;51.660;5.616;2023-11-21T09:39:53;4.57;;;2.25;;
64543;SDS011;50936;51.660;5.616;2023-11-21T09:42:40;4.07;;;2.25;;
64543;SDS011;50936;51.660;5.616;2023-11-21T09:45:35;4.78;;;2.50;;
64543;SDS011;50936;51.660;5.616;2023-11-21T09:48:25;6.50;;;2.53;;
64543;SDS011;50936;51.660;5.616;2023-11-21T09:51:13;5.60;;;2.40;;
64543;SDS011;50936;51.660;5.616;2023-11-21T09:54:02;5.05;;;2.50;;
64543;SDS011;50936;51.660;5.616;2023-11-21T09:56:55;4.57;;;2.20;;
64543;SDS011;50936;51.660;5.616;2023-11-21T09:59:44;6.03;;;2.58;;
64543;SDS011;50936;51.660;5.616;2023-11-21T10:02:36;6.07;;;2.70;;
64543;SDS011;50936;51.660;5.616;2023-11-21T10:05:27;7.68;;;2.42;;
64543;SDS011;50936;51.660;5.616;2023-11-21T10:08:15;8.25;;;2.78;;
64543;SDS011;50936;51.660;5.616;2023-11-21T10:11:02;6.25;;;2.72;;
64543;SDS011;50936;51.660;5.616;2023-11-21T10:13:54;5.55;;;2.50;;
64543;SDS011;50936;51.660;5.616;2023-11-21T10:16:44;5.57;;;2.80;;
64543;SDS011;50936;51.660;5.616;2023-11-21T10:19:36;8.13;;;2.90;;
64543;SDS011;50936;51.660;5.616;2023-11-21T10:22:23;8.50;;;3.17;;
64543;SDS011;50936;51.660;5.616;2023-11-21T10:25:13;7.03;;;3.00;;
64543;SDS011;50936;51.660;5.616;2023-11-21T10:28:04;7.07;;;2.97;;
64543;SDS011;50936;51.660;5.616;2023-11-21T10:30:52;7.10;;;2.63;;
64543;SDS011;50936;51.660;5.616;2023-11-21T10:33:39;6.35;;;3.00;;
64543;SDS011;50936;51.660;5.616;2023-11-21T10:36:27;8.23;;;3.78;;
64543;SDS011;50936;51.660;5.616;2023-11-21T10:39:21;7.50;;;3.20;;
64543;SDS011;50936;51.660;5.616;2023-11-21T10:42:10;7.07;;;3.47;;
64543;SDS011;50936;51.660;5.616;2023-11-21T10:44:57;9.88;;;3.33;;
64543;SDS011;50936;51.660;5.616;2023-11-21T10:47:45;9.18;;;3.75;;
64543;SDS011;50936;51.660;5.616;2023-11-21T10:50:32;8.00;;;2.97;;
64543;SDS011;50936;51.660;5.616;2023-11-21T10:53:21;7.35;;;3.47;;
64543;SDS011;50936;51.660;5.616;2023-11-21T10:56:09;8.50;;;3.72;;
64543;SDS011;50936;51.660;5.616;2023-11-21T10:59:15;9.30;;;3.85;;
64543;SDS011;50936;51.660;5.616;2023-11-21T11:05:12;10.90;;;4.25;;
64543;SDS011;50936;51.660;5.616;2023-11-21T11:08:05;9.88;;;4.28;;
64543;SDS011;50936;51.660;5.616;2023-11-21T11:10:59;11.00;;;4.85;;
64543;SDS011;50936;51.660;5.616;2023-11-21T11:13:46;10.00;;;4.60;;
64543;SDS011;50936;51.660;5.616;2023-11-21T11:16:33;9.77;;;4.53;;
64543;SDS011;50936;51.660;5.616;2023-11-21T11:19:21;12.93;;;5.22;;
64543;SDS011;50936;51.660;5.616;2023-11-21T11:22:14;11.10;;;4.88;;
64543;SDS011;50936;51.660;5.616;2023-11-21T11:29:25;13.00;;;5.05;;
64543;SDS011;50936;51.660;5.616;2023-11-21T11:34:54;9.98;;;4.30;;
64543;SDS011;50936;51.660;5.616;2023-11-21T11:38:03;12.45;;;4.78;;
64543;SDS011;50936;51.660;5.616;2023-11-21T11:40:54;11.35;;;4.45;;
64543;SDS011;50936;51.660;5.616;2023-11-21T11:43:41;13.57;;;4.75;;
64543;SDS011;50936;51.660;5.616;2023-11-21T11:46:41;10.25;;;4.82;;
64543;SDS011;50936;51.660;5.616;2023-11-21T11:49:32;11.82;;;4.97;;
64543;SDS011;50936;51.660;5.616;2023-11-21T11:55:29;9.93;;;4.20;;
64543;SDS011;50936;51.660;5.616;2023-11-21T11:58:17;12.95;;;5.18;;
64543;SDS011;50936;51.660;5.616;2023-11-21T12:01:06;11.13;;;4.82;;
64543;SDS011;50936;51.660;5.616;2023-11-21T12:06:59;10.32;;;4.30;;
64543;SDS011;50936;51.660;5.616;2023-11-21T12:09:49;11.57;;;4.97;;
64543;SDS011;50936;51.660;5.616;2023-11-21T12:12:37;11.75;;;4.97;;
64543;SDS011;50936;51.660;5.616;2023-11-21T12:15:25;11.00;;;4.80;;
64543;SDS011;50936;51.660;5.616;2023-11-21T12:18:15;9.45;;;4.97;;
64543;SDS011;50936;51.660;5.616;2023-11-21T12:21:02;11.93;;;4.53;;
64543;SDS011;50936;51.660;5.616;2023-11-21T12:23:50;9.90;;;4.82;;
64543;SDS011;50936;51.660;5.616;2023-11-21T12:26:37;11.82;;;4.22;;
64543;SDS011;50936;51.660;5.616;2023-11-21T12:29:25;11.82;;;5.13;;
64543;SDS011;50936;51.660;5.616;2023-11-21T12:32:12;8.02;;;4.45;;
64543;SDS011;50936;51.660;5.616;2023-11-21T12:35:03;10.35;;;4.32;;
64543;SDS011;50936;51.660;5.616;2023-11-21T12:37:53;10.85;;;4.40;;
64543;SDS011;50936;51.660;5.616;2023-11-21T12:40:44;8.75;;;4.03;;
64543;SDS011;50936;51.660;5.616;2023-11-21T12:43:32;11.75;;;4.05;;
64543;SDS011;50936;51.660;5.616;2023-11-21T12:46:21;11.45;;;4.95;;
64543;SDS011;50936;51.660;5.616;2023-11-21T12:49:10;8.95;;;4.55;;
64543;SDS011;50936;51.660;5.616;2023-11-21T12:52:04;11.50;;;4.50;;
64543;SDS011;50936;51.660;5.616;2023-11-21T12:54:53;11.23;;;4.20;;
64543;SDS011;50936;51.660;5.616;2023-11-21T12:57:42;12.85;;;4.93;;
64543;SDS011;50936;51.660;5.616;2023-11-21T13:00:31;11.77;;;4.97;;
64543;SDS011;50936;51.660;5.616;2023-11-21T13:03:24;9.93;;;4.40;;
64543;SDS011;50936;51.660;5.616;2023-11-21T13:06:14;11.27;;;4.80;;
64543;SDS011;50936;51.660;5.616;2023-11-21T13:09:03;11.13;;;4.55;;
64543;SDS011;50936;51.660;5.616;2023-11-21T13:11:58;11.55;;;4.65;;
64543;SDS011;50936;51.660;5.616;2023-11-21T13:14:50;9.45;;;3.70;;
64543;SDS011;50936;51.660;5.616;2023-11-21T13:17:38;10.88;;;4.55;;
64543;SDS011;50936;51.660;5.616;2023-11-21T13:20:26;9.25;;;4.30;;
64543;SDS011;50936;51.660;5.616;2023-11-21T13:23:14;10.23;;;4.13;;
64543;SDS011;50936;51.660;5.616;2023-11-21T13:26:03;9.05;;;4.10;;
64543;SDS011;50936;51.660;5.616;2023-11-21T13:31:40;9.50;;;4.22;;
64543;SDS011;50936;51.660;5.616;2023-11-21T13:34:28;10.32;;;4.18;;
64543;SDS011;50936;51.660;5.616;2023-11-21T13:37:20;8.80;;;4.30;;
64543;SDS011;50936;51.660;5.616;2023-11-21T13:40:07;9.02;;;4.28;;
64543;SDS011;50936;51.660;5.616;2023-11-21T13:43:01;8.82;;;4.13;;
64543;SDS011;50936;51.660;5.616;2023-11-21T13:45:51;10.52;;;4.25;;
64543;SDS011;50936;51.660;5.616;2023-11-21T13:48:57;9.07;;;3.88;;
64543;SDS011;50936;51.660;5.616;2023-11-21T13:51:44;9.95;;;3.17;;
64543;SDS011;50936;51.660;5.616;2023-11-21T13:54:35;9.65;;;3.67;;
64543;SDS011;50936;51.660;5.616;2023-11-21T13:57:22;7.93;;;3.42;;
64543;SDS011;50936;51.660;5.616;2023-11-21T14:00:09;10.18;;;3.75;;
64543;SDS011;50936;51.660;5.616;2023-11-21T14:03:12;8.20;;;3.35;;
64543;SDS011;50936;51.660;5.616;2023-11-21T14:06:05;8.45;;;4.05;;
64543;SDS011;50936;51.660;5.616;2023-11-21T14:09:07;7.05;;;3.10;;
64543;SDS011;50936;51.660;5.616;2023-11-21T14:11:55;6.38;;;3.25;;
64543;SDS011;50936;51.660;5.616;2023-11-21T14:14:44;8.48;;;3.50;;
64543;SDS011;50936;51.660;5.616;2023-11-21T14:17:32;8.75;;;3.80;;
64543;SDS011;50936;51.660;5.616;2023-11-21T14:20:21;8.10;;;3.63;;
64543;SDS011;50936;51.660;5.616;2023-11-21T14:23:09;7.40;;;3.70;;
64543;SDS011;50936;51.660;5.616;2023-11-21T14:25:58;7.55;;;4.00;;
64543;SDS011;50936;51.660;5.616;2023-11-21T14:28:47;9.48;;;3.78;;
64543;SDS011;50936;51.660;5.616;2023-11-21T14:31:35;9.45;;;3.88;;
64543;SDS011;50936;51.660;5.616;2023-11-21T14:34:23;10.27;;;3.58;;
64543;SDS011;50936;51.660;5.616;2023-11-21T14:37:11;9.70;;;4.13;;
64543;SDS011;50936;51.660;5.616;2023-11-21T14:40:00;6.90;;;3.58;;
64543;SDS011;50936;51.660;5.616;2023-11-21T14:42:47;8.27;;;4.03;;
64543;SDS011;50936;51.660;5.616;2023-11-21T14:45:35;8.80;;;4.13;;
64543;SDS011;50936;51.660;5.616;2023-11-21T14:48:22;9.73;;;4.35;;
64543;SDS011;50936;51.660;5.616;2023-11-21T14:51:28;9.48;;;4.82;;
64543;SDS011;50936;51.660;5.616;2023-11-21T14:54:18;7.68;;;3.75;;
64543;SDS011;50936;51.660;5.616;2023-11-21T14:57:18;7.15;;;3.53;;
64543;SDS011;50936;51.660;5.616;2023-11-21T15:00:07;8.52;;;3.92;;
64543;SDS011;50936;51.660;5.616;2023-11-21T15:03:15;7.93;;;3.45;;
64543;SDS011;50936;51.660;5.616;2023-11-21T15:06:25;7.05;;;3.45;;
64543;SDS011;50936;51.660;5.616;2023-11-21T15:09:16;7.75;;;3.95;;
64543;SDS011;50936;51.660;5.616;2023-11-21T15:12:21;7.32;;;3.70;;
64543;SDS011;50936;51.660;5.616;2023-11-21T15:15:12;8.60;;;3.83;;
64543;SDS011;50936;51.660;5.616;2023-11-21T15:18:01;9.88;;;4.05;;
64543;SDS011;50936;51.660;5.616;2023-11-21T15:20:48;8.40;;;3.95;;
64543;SDS011;50936;51.660;5.616;2023-11-21T15:23:35;7.82;;;3.92;;
64543;SDS011;50936;51.660;5.616;2023-11-21T15:26:22;8.93;;;4.15;;
64543;SDS011;50936;51.660;5.616;2023-11-21T15:29:10;8.25;;;3.90;;
64543;SDS011;50936;51.660;5.616;2023-11-21T15:31:57;7.22;;;3.78;;
64543;SDS011;50936;51.660;5.616;2023-11-21T15:34:45;7.07;;;3.65;;
64543;SDS011;50936;51.660;5.616;2023-11-21T15:37:34;6.60;;;3.65;;
64543;SDS011;50936;51.660;5.616;2023-11-21T15:40:21;9.10;;;3.97;;
64543;SDS011;50936;51.660;5.616;2023-11-21T15:43:08;7.78;;;3.92;;
64543;SDS011;50936;51.660;5.616;2023-11-21T15:45:56;8.38;;;3.63;;
64543;SDS011;50936;51.660;5.616;2023-11-21T15:48:43;7.13;;;3.63;;
64543;SDS011;50936;51.660;5.616;2023-11-21T15:51:36;9.57;;;4.20;;
64543;SDS011;50936;51.660;5.616;2023-11-21T15:54:23;7.15;;;3.78;;
64543;SDS011;50936;51.660;5.616;2023-11-21T15:57:12;7.70;;;3.80;;
64543;SDS011;50936;51.660;5.616;2023-11-21T16:00:00;7.50;;;3.70;;
64543;SDS011;50936;51.660;5.616;2023-11-21T16:02:53;7.68;;;3.92;;
64543;SDS011;50936;51.660;5.616;2023-11-21T16:05:41;7.88;;;3.28;;
64543;SDS011;50936;51.660;5.616;2023-11-21T16:08:28;8.05;;;3.67;;
64543;SDS011;50936;51.660;5.616;2023-11-21T16:11:16;6.80;;;4.03;;
64543;SDS011;50936;51.660;5.616;2023-11-21T16:14:03;8.73;;;3.70;;
64543;SDS011;50936;51.660;5.616;2023-11-21T16:16:51;9.32;;;4.10;;
64543;SDS011;50936;51.660;5.616;2023-11-21T16:19:39;7.45;;;3.63;;
64543;SDS011;50936;51.660;5.616;2023-11-21T16:22:26;8.30;;;4.10;;
64543;SDS011;50936;51.660;5.616;2023-11-21T16:25:14;7.43;;;3.45;;
64543;SDS011;50936;51.660;5.616;2023-11-21T16:28:02;8.13;;;3.30;;
64543;SDS011;50936;51.660;5.616;2023-11-21T16:30:51;7.00;;;3.33;;
64543;SDS011;50936;51.660;5.616;2023-11-21T16:33:38;7.63;;;3.70;;
64543;SDS011;50936;51.660;5.616;2023-11-21T16:36:26;8.15;;;3.55;;
64543;SDS011;50936;51.660;5.616;2023-11-21T16:39:13;6.55;;;3.50;;
64543;SDS011;50936;51.660;5.616;2023-11-21T16:42:00;7.78;;;3.72;;
64543;SDS011;50936;51.660;5.616;2023-11-21T16:44:50;6.97;;;3.65;;
64543;SDS011;50936;51.660;5.616;2023-11-21T16:47:42;7.25;;;3.60;;
64543;SDS011;50936;51.660;5.616;2023-11-21T16:50:29;8.73;;;3.22;;
64543;SDS011;50936;51.660;5.616;2023-11-21T16:53:16;5.90;;;3.20;;
64543;SDS011;50936;51.660;5.616;2023-11-21T16:56:03;6.22;;;3.70;;
64543;SDS011;50936;51.660;5.616;2023-11-21T16:58:51;8.00;;;4.22;;
64543;SDS011;50936;51.660;5.616;2023-11-21T17:01:38;7.07;;;3.90;;
64543;SDS011;50936;51.660;5.616;2023-11-21T17:04:25;6.50;;;3.60;;
64543;SDS011;50936;51.660;5.616;2023-11-21T17:07:16;6.95;;;3.35;;
64543;SDS011;50936;51.660;5.616;2023-11-21T17:10:07;5.53;;;3.08;;
64543;SDS011;50936;51.660;5.616;2023-11-21T17:12:56;8.02;;;4.10;;